createdAt,value
2023-09-16T00:01:40.916Z,9.52
2023-09-16T00:04:43.411Z,9.32
2023-09-16T00:07:45.961Z,8.80
2023-09-16T00:10:49.100Z,9.23
2023-09-16T00:13:51.134Z,9.75
2023-09-16T00:16:54.327Z,10.07
2023-09-16T00:19:56.270Z,11.27
2023-09-16T00:22:58.749Z,9.75
2023-09-16T00:26:01.360Z,11.50
2023-09-16T00:29:03.589Z,9.77
2023-09-16T00:32:05.753Z,10.40
2023-09-16T00:35:09.580Z,10.70
2023-09-16T00:38:11.733Z,10.23
2023-09-16T00:41:13.912Z,10.40
2023-09-16T00:44:16.034Z,14.90
2023-09-16T00:47:18.506Z,10.60
2023-09-16T00:50:20.660Z,11.10
2023-09-16T00:53:23.354Z,11.27
2023-09-16T00:56:28.934Z,9.55
2023-09-16T00:59:33.528Z,9.50
2023-09-16T01:02:36.605Z,9.07
2023-09-16T01:05:38.822Z,10.95
2023-09-16T01:08:40.957Z,9.82
2023-09-16T01:11:43.330Z,10.32
2023-09-16T01:14:45.373Z,9.32
2023-09-16T01:18:02.441Z,8.93
2023-09-16T01:21:07.816Z,9.48
2023-09-16T01:24:17.253Z,9.75
2023-09-16T01:27:19.264Z,10.07
2023-09-16T01:30:21.398Z,9.07
2023-09-16T01:33:33.126Z,8.73
2023-09-16T01:36:37.183Z,8.55
2023-09-16T01:39:40.781Z,10.57
2023-09-16T01:42:43.597Z,9.43
2023-09-16T01:45:46.364Z,10.65
2023-09-16T01:48:48.424Z,10.80
2023-09-16T01:51:50.614Z,9.40
2023-09-16T01:54:52.566Z,11.68
2023-09-16T01:57:54.654Z,10.48
2023-09-16T02:00:56.862Z,10.95
2023-09-16T02:03:58.951Z,9.43
2023-09-16T02:07:01.260Z,9.30
2023-09-16T02:10:04.495Z,10.73
2023-09-16T02:13:06.828Z,9.32
2023-09-16T02:16:11.597Z,9.05
2023-09-16T02:19:14.699Z,9.48
2023-09-16T02:22:18.792Z,9.88
2023-09-16T02:25:20.879Z,10.35
2023-09-16T02:28:22.913Z,9.98
2023-09-16T02:31:30.039Z,8.98
2023-09-16T02:34:33.250Z,9.35
2023-09-16T02:37:35.313Z,9.43
2023-09-16T02:40:44.130Z,9.77
2023-09-16T02:46:51.612Z,8.95
2023-09-16T02:49:54.479Z,9.73
2023-09-16T02:52:56.511Z,10.25
2023-09-16T02:55:58.993Z,9.40
2023-09-16T02:59:02.226Z,9.68
2023-09-16T03:02:04.639Z,9.38
2023-09-16T03:05:06.812Z,9.57
2023-09-16T03:08:09.269Z,9.48
2023-09-16T03:11:12.628Z,10.82
2023-09-16T03:14:15.135Z,9.15
2023-09-16T03:17:17.788Z,10.77
2023-09-16T03:20:19.978Z,9.48
2023-09-16T03:23:22.543Z,10.25
2023-09-16T03:26:25.120Z,11.77
2023-09-16T03:29:27.293Z,10.00
2023-09-16T03:32:30.769Z,10.63
2023-09-16T03:35:36.193Z,10.70
2023-09-16T03:38:47.097Z,11.45
2023-09-16T03:41:49.464Z,11.45
2023-09-16T03:44:52.639Z,10.02
2023-09-16T03:47:54.659Z,11.25
2023-09-16T03:50:56.944Z,11.13
2023-09-16T03:53:59.378Z,10.55
2023-09-16T03:57:01.704Z,11.30
2023-09-16T04:00:08.853Z,11.80
2023-09-16T04:06:16.837Z,11.98
2023-09-16T04:09:18.882Z,12.63
2023-09-16T04:12:20.906Z,12.32
2023-09-16T04:15:22.927Z,15.75
2023-09-16T04:18:24.925Z,11.52
2023-09-16T04:21:27.777Z,12.35
2023-09-16T04:24:30.030Z,12.07
2023-09-16T04:27:32.127Z,11.57
2023-09-16T04:30:50.160Z,13.00
2023-09-16T04:33:53.890Z,11.68
2023-09-16T04:36:56.545Z,13.00
2023-09-16T04:39:58.936Z,13.23
2023-09-16T04:43:01.001Z,13.20
2023-09-16T04:46:03.740Z,11.43
2023-09-16T04:49:10.905Z,13.52
2023-09-16T04:52:12.953Z,13.45
2023-09-16T04:55:16.113Z,13.45
2023-09-16T04:58:18.263Z,13.73
2023-09-16T05:01:20.968Z,14.05
2023-09-16T05:04:23.464Z,13.80
2023-09-16T05:07:26.069Z,13.48
2023-09-16T05:10:28.645Z,15.27
2023-09-16T05:13:31.036Z,15.93
2023-09-16T05:16:33.281Z,15.30
2023-09-16T05:19:40.190Z,14.65
2023-09-16T05:22:48.915Z,16.05
2023-09-16T05:25:52.104Z,14.60
2023-09-16T05:29:02.059Z,15.07
2023-09-16T05:32:06.400Z,15.50
2023-09-16T05:35:10.302Z,15.43
2023-09-16T05:38:12.402Z,14.13
2023-09-16T05:41:14.438Z,15.13
2023-09-16T05:44:21.287Z,14.88
2023-09-16T05:47:23.722Z,14.02
2023-09-16T05:50:25.821Z,15.98
2023-09-16T05:53:28.975Z,14.75
2023-09-16T05:56:38.576Z,16.08
2023-09-16T05:59:42.336Z,14.70
2023-09-16T06:02:44.506Z,15.32
2023-09-16T06:05:47.889Z,16.33
2023-09-16T06:08:50.292Z,14.10
2023-09-16T06:11:52.472Z,14.23
2023-09-16T06:14:54.554Z,14.73
2023-09-16T06:17:57.247Z,14.30
2023-09-16T06:20:59.301Z,15.02
2023-09-16T06:24:01.647Z,16.63
2023-09-16T06:27:04.029Z,15.27
2023-09-16T06:30:07.227Z,14.20
2023-09-16T06:33:09.356Z,15.32
2023-09-16T06:36:14.107Z,15.10
2023-09-16T06:39:16.125Z,14.52
2023-09-16T06:42:18.142Z,15.27
2023-09-16T06:45:22.363Z,14.95
2023-09-16T06:48:26.038Z,15.45
2023-09-16T06:51:27.996Z,14.75
2023-09-16T06:54:29.989Z,14.68
2023-09-16T06:57:32.817Z,15.82
2023-09-16T07:00:36.742Z,16.13
2023-09-16T07:03:38.835Z,17.60
2023-09-16T07:06:40.968Z,16.40
2023-09-16T07:09:43.378Z,16.30
2023-09-16T07:12:45.651Z,15.55
2023-09-16T07:15:56.392Z,16.60
2023-09-16T07:18:58.487Z,14.93
2023-09-16T07:22:00.858Z,16.95
2023-09-16T07:25:03.185Z,15.02
2023-09-16T07:28:05.828Z,15.43
2023-09-16T07:31:08.112Z,15.75
2023-09-16T07:34:10.269Z,14.73
2023-09-16T07:37:12.376Z,13.45
2023-09-16T07:40:14.415Z,14.55
2023-09-16T07:43:18.091Z,16.27
2023-09-16T07:46:20.248Z,14.52
2023-09-16T07:49:22.880Z,13.82
2023-09-16T07:52:25.199Z,17.05
2023-09-16T07:55:27.335Z,13.57
2023-09-16T07:58:29.341Z,12.13
2023-09-16T08:01:31.572Z,12.52
2023-09-16T08:04:34.404Z,11.90
2023-09-16T08:07:36.559Z,11.90
2023-09-16T08:10:38.543Z,14.48
2023-09-16T08:13:40.609Z,11.82
2023-09-16T08:16:42.720Z,11.70
2023-09-16T08:19:44.860Z,11.45
2023-09-16T08:22:46.970Z,10.20
2023-09-16T08:25:49.141Z,11.13
2023-09-16T08:28:51.466Z,11.63
2023-09-16T08:31:53.688Z,10.60
2023-09-16T08:34:58.936Z,10.60
2023-09-16T08:38:02.950Z,9.30
2023-09-16T08:41:45.690Z,9.05
2023-09-16T08:44:52.282Z,9.23
2023-09-16T08:47:58.114Z,9.55
2023-09-16T08:51:02.598Z,8.10
2023-09-16T08:54:05.592Z,8.50
2023-09-16T08:57:08.594Z,8.43
2023-09-16T09:00:11.282Z,8.77
2023-09-16T09:03:13.477Z,9.35
2023-09-16T09:06:23.309Z,9.00
2023-09-16T09:09:29.914Z,7.82
2023-09-16T09:12:34.230Z,8.00
2023-09-16T09:15:36.583Z,7.25
2023-09-16T09:18:39.141Z,7.82
2023-09-16T09:21:42.198Z,11.40
2023-09-16T09:24:44.521Z,8.25
2023-09-16T09:27:46.625Z,8.20
2023-09-16T09:30:48.785Z,7.25
2023-09-16T09:33:51.258Z,7.50
2023-09-16T09:36:53.314Z,7.32
2023-09-16T09:40:05.787Z,7.30
2023-09-16T09:43:07.909Z,7.60
2023-09-16T09:46:10.030Z,7.85
2023-09-16T09:49:14.021Z,7.28
2023-09-16T09:52:16.090Z,6.70
2023-09-16T09:55:38.714Z,5.70
2023-09-16T09:58:41.833Z,5.93
2023-09-16T10:01:43.969Z,6.20
2023-09-16T10:04:48.155Z,5.65
2023-09-16T10:07:52.639Z,5.75
2023-09-16T10:10:55.722Z,5.93
2023-09-16T10:13:57.840Z,9.55
2023-09-16T10:16:59.982Z,5.57
2023-09-16T10:20:03.561Z,5.22
2023-09-16T10:23:06.210Z,5.00
2023-09-16T10:26:09.594Z,5.97
2023-09-16T10:29:12.206Z,5.47
2023-09-16T10:32:16.666Z,4.88
2023-09-16T10:35:23.546Z,5.05
2023-09-16T10:38:26.475Z,5.53
2023-09-16T10:41:28.858Z,4.80
2023-09-16T10:44:31.743Z,3.90
2023-09-16T10:47:33.910Z,5.07
2023-09-16T10:50:37.847Z,4.28
2023-09-16T10:56:45.145Z,3.08
2023-09-16T10:59:49.005Z,3.88
2023-09-16T11:02:57.360Z,3.25
2023-09-16T11:06:00.673Z,3.17
2023-09-16T11:09:02.960Z,3.10
2023-09-16T11:12:06.854Z,3.42
2023-09-16T11:15:09.869Z,3.72
2023-09-16T11:18:12.051Z,3.58
2023-09-16T11:21:14.260Z,3.67
2023-09-16T11:24:17.314Z,3.22
2023-09-16T11:27:19.532Z,4.20
2023-09-16T11:30:21.778Z,4.43
2023-09-16T11:33:40.046Z,4.07
2023-09-16T11:36:44.148Z,4.13
2023-09-16T11:39:47.699Z,3.78
2023-09-16T11:42:50.732Z,4.13
2023-09-16T11:45:53.084Z,3.50
2023-09-16T11:48:58.635Z,3.97
2023-09-16T11:52:01.816Z,4.00
2023-09-16T11:55:04.423Z,6.55
2023-09-16T11:58:06.605Z,4.30
2023-09-16T12:01:09.224Z,4.72
2023-09-16T12:04:12.524Z,4.68
2023-09-16T12:07:15.001Z,4.80
2023-09-16T12:10:18.297Z,4.40
2023-09-16T12:13:30.823Z,4.90
2023-09-16T12:16:33.070Z,4.70
2023-09-16T12:19:35.205Z,4.65
2023-09-16T12:22:37.299Z,4.28
2023-09-16T12:25:42.995Z,5.18
2023-09-16T12:28:45.246Z,4.57
2023-09-16T12:31:48.664Z,4.40
2023-09-16T12:35:06.753Z,3.55
2023-09-16T12:38:08.829Z,4.30
2023-09-16T12:41:13.785Z,4.15
2023-09-16T12:44:16.010Z,4.38
2023-09-16T12:47:18.810Z,4.38
2023-09-16T12:50:21.642Z,3.70
2023-09-16T12:53:27.770Z,6.15
2023-09-16T12:56:31.519Z,4.47
2023-09-16T12:59:33.662Z,3.75
2023-09-16T13:02:38.084Z,3.70
2023-09-16T13:05:40.543Z,3.63
2023-09-16T13:08:42.990Z,4.22
2023-09-16T13:11:45.358Z,4.13
2023-09-16T13:14:48.293Z,3.70
2023-09-16T13:17:58.552Z,5.43
2023-09-16T13:21:00.811Z,19.65
2023-09-16T13:24:03.647Z,13.43
2023-09-16T13:27:09.418Z,24.20
2023-09-16T13:30:11.797Z,19.17
2023-09-16T13:33:14.049Z,5.93
2023-09-16T13:36:16.241Z,35.95
2023-09-16T13:39:18.431Z,18.98
2023-09-16T13:42:20.527Z,12.90
2023-09-16T13:45:22.653Z,21.90
2023-09-16T13:48:24.811Z,24.48
2023-09-16T13:51:28.220Z,5.07
2023-09-16T13:54:31.101Z,9.90
2023-09-16T13:57:33.181Z,5.82
2023-09-16T14:00:36.367Z,6.97
2023-09-16T14:03:38.471Z,5.72
2023-09-16T14:06:40.575Z,9.63
2023-09-16T14:09:42.594Z,8.27
2023-09-16T14:12:44.567Z,5.63
2023-09-16T14:15:46.662Z,23.92
2023-09-16T14:18:48.699Z,86.95
2023-09-16T14:21:50.761Z,40.63
2023-09-16T14:24:52.851Z,18.48
2023-09-16T14:27:55.198Z,26.38
2023-09-16T14:30:57.207Z,9.98
2023-09-16T14:33:59.324Z,20.08
2023-09-16T14:37:01.329Z,18.83
2023-09-16T14:40:03.457Z,33.05
2023-09-16T14:43:08.433Z,22.40
2023-09-16T14:46:10.499Z,25.27
2023-09-16T14:49:12.695Z,19.25
2023-09-16T14:52:14.821Z,43.22
2023-09-16T14:55:35.597Z,18.50
2023-09-16T14:58:56.252Z,57.90
2023-09-16T15:01:58.383Z,32.72
2023-09-16T15:05:00.538Z,27.02
2023-09-16T15:08:02.874Z,43.97
2023-09-16T15:11:04.849Z,52.95
2023-09-16T15:14:07.728Z,52.95
2023-09-16T15:17:09.744Z,49.20
2023-09-16T15:20:13.157Z,45.03
2023-09-16T15:23:15.332Z,35.42
2023-09-16T15:26:18.002Z,23.38
2023-09-16T15:29:19.994Z,21.55
2023-09-16T15:35:26.872Z,12.07
2023-09-16T15:38:28.896Z,10.48
2023-09-16T15:41:30.993Z,9.93
2023-09-16T15:44:33.011Z,15.18
2023-09-16T15:47:35.130Z,15.55
2023-09-16T15:50:47.984Z,12.70
2023-09-16T15:53:50.147Z,9.30
2023-09-16T15:56:52.994Z,18.05
2023-09-16T15:59:55.017Z,10.23
2023-09-16T16:02:57.259Z,8.02
2023-09-16T16:05:59.328Z,7.28
2023-09-16T16:09:01.371Z,7.88
2023-09-16T16:12:04.935Z,8.52
2023-09-16T16:15:07.121Z,8.63
2023-09-16T16:18:11.112Z,7.63
2023-09-16T16:21:13.200Z,7.57
2023-09-16T16:24:15.214Z,8.18
2023-09-16T16:27:17.436Z,8.23
2023-09-16T16:30:19.571Z,8.73
2023-09-16T16:33:21.592Z,10.25
2023-09-16T16:36:23.633Z,9.00
2023-09-16T16:39:25.689Z,8.45
2023-09-16T16:42:27.714Z,11.02
2023-09-16T16:45:29.781Z,8.85
2023-09-16T16:48:32.340Z,8.38
2023-09-16T16:51:34.302Z,9.77
2023-09-16T16:54:36.402Z,10.88
2023-09-16T16:57:38.465Z,11.25
2023-09-16T17:00:40.485Z,9.48
2023-09-16T17:03:44.761Z,8.90
2023-09-16T17:06:46.918Z,10.50
2023-09-16T17:09:48.985Z,9.65
2023-09-16T17:12:50.992Z,9.30
2023-09-16T17:15:53.082Z,10.55
2023-09-16T17:18:55.057Z,9.52
2023-09-16T17:21:57.121Z,9.20
2023-09-16T17:24:59.348Z,10.35
2023-09-16T17:28:03.347Z,12.40
2023-09-16T17:31:05.552Z,9.45
2023-09-16T17:34:07.923Z,8.90
2023-09-16T17:37:10.144Z,8.13
2023-09-16T17:40:12.729Z,6.78
2023-09-16T17:43:14.798Z,8.25
2023-09-16T17:46:17.895Z,7.50
2023-09-16T17:49:22.796Z,7.25
2023-09-16T17:52:24.934Z,7.18
2023-09-16T17:55:27.114Z,7.70
2023-09-16T17:58:34.930Z,7.53
2023-09-16T18:01:37.222Z,7.15
2023-09-16T18:04:39.453Z,6.95
2023-09-16T18:07:41.594Z,7.10
2023-09-16T18:10:45.165Z,8.15
2023-09-16T18:13:47.462Z,7.28
2023-09-16T18:16:49.625Z,7.20
2023-09-16T18:19:51.888Z,7.43
2023-09-16T18:22:53.930Z,7.65
2023-09-16T18:25:56.498Z,7.55
2023-09-16T18:28:58.577Z,7.47
2023-09-16T18:32:01.306Z,7.47
2023-09-16T18:35:05.050Z,7.30
2023-09-16T18:38:20.085Z,7.55
2023-09-16T18:41:23.080Z,7.32
2023-09-16T18:44:25.630Z,7.25
2023-09-16T18:47:27.904Z,7.82
2023-09-16T18:50:31.105Z,7.95
2023-09-16T18:53:33.231Z,7.53
2023-09-16T18:56:35.234Z,7.60
2023-09-16T18:59:37.232Z,8.43
2023-09-16T19:02:39.866Z,8.57
2023-09-16T19:05:42.046Z,7.72
2023-09-16T19:08:44.220Z,7.57
2023-09-16T19:11:47.507Z,8.38
2023-09-16T19:14:49.603Z,7.88
2023-09-16T19:17:51.901Z,7.70
2023-09-16T19:20:54.042Z,7.80
2023-09-16T19:23:56.176Z,7.60
2023-09-16T19:26:58.227Z,8.48
2023-09-16T19:30:02.174Z,8.73
2023-09-16T19:33:05.771Z,8.43
2023-09-16T19:36:07.781Z,8.18
2023-09-16T19:39:09.803Z,9.90
2023-09-16T19:42:11.728Z,9.77
2023-09-16T19:45:14.142Z,9.50
2023-09-16T19:48:16.236Z,9.60
2023-09-16T19:51:18.281Z,7.85
2023-09-16T19:54:20.345Z,8.70
2023-09-16T19:57:22.536Z,11.23
2023-09-16T20:00:26.814Z,9.10
2023-09-16T20:03:29.565Z,8.73
2023-09-16T20:06:31.705Z,9.02
2023-09-16T20:09:33.702Z,9.05
2023-09-16T20:12:35.665Z,9.88
2023-09-16T20:15:37.618Z,8.93
2023-09-16T20:18:39.751Z,9.52
2023-09-16T20:21:41.769Z,9.55
2023-09-16T20:24:43.938Z,9.05
2023-09-16T20:27:45.988Z,9.55
2023-09-16T20:30:48.067Z,9.75
2023-09-16T20:34:04.506Z,9.70
2023-09-16T20:37:10.944Z,10.75
2023-09-16T20:40:13.017Z,9.70
2023-09-16T20:43:27.833Z,11.55
2023-09-16T20:46:30.384Z,9.52
2023-09-16T20:49:33.161Z,9.13
2023-09-16T20:52:36.489Z,10.32
2023-09-16T20:55:38.605Z,10.23
2023-09-16T20:58:40.723Z,10.40
2023-09-16T21:01:42.830Z,10.65
2023-09-16T21:04:44.848Z,10.65
2023-09-16T21:07:46.890Z,10.90
2023-09-16T21:10:48.890Z,11.18
2023-09-16T21:13:51.047Z,11.20
2023-09-16T21:16:53.383Z,11.13
2023-09-16T21:19:56.556Z,12.05
2023-09-16T21:22:58.495Z,11.63
2023-09-16T21:26:00.524Z,12.18
2023-09-16T21:29:02.582Z,10.65
2023-09-16T21:32:04.790Z,10.52
2023-09-16T21:35:07.410Z,10.63
2023-09-16T21:38:09.709Z,10.43
2023-09-16T21:41:11.916Z,11.93
2023-09-16T21:44:13.908Z,10.25
2023-09-16T21:47:16.396Z,9.82
2023-09-16T21:50:18.488Z,9.18
2023-09-16T21:53:21.191Z,9.75
2023-09-16T21:56:23.173Z,9.93
2023-09-16T21:59:25.285Z,10.15
2023-09-16T22:02:27.339Z,10.15
2023-09-16T22:05:33.897Z,9.45
2023-09-16T22:08:37.209Z,9.90
2023-09-16T22:11:39.185Z,10.27
2023-09-16T22:14:41.168Z,9.10
2023-09-16T22:17:44.420Z,8.30
2023-09-16T22:20:46.583Z,8.45
2023-09-16T22:23:51.812Z,8.00
2023-09-16T22:26:54.070Z,7.50
2023-09-16T22:29:56.964Z,8.05
2023-09-16T22:32:58.912Z,7.13
2023-09-16T22:36:00.980Z,8.05
2023-09-16T22:39:03.389Z,8.45
2023-09-16T22:42:05.834Z,11.02
2023-09-16T22:45:08.230Z,9.32
2023-09-16T22:48:10.229Z,9.25
2023-09-16T22:51:12.314Z,8.27
2023-09-16T22:54:14.297Z,8.55
2023-09-16T22:57:17.002Z,8.73
2023-09-16T23:00:19.459Z,9.20
2023-09-16T23:03:21.596Z,8.48
2023-09-16T23:06:23.976Z,7.85
2023-09-16T23:09:25.932Z,8.70
2023-09-16T23:12:27.921Z,7.65
2023-09-16T23:15:30.330Z,9.00
2023-09-16T23:18:32.367Z,9.00
2023-09-16T23:21:34.388Z,8.15
2023-09-16T23:24:36.872Z,7.75
2023-09-16T23:27:38.842Z,7.80
2023-09-16T23:30:42.575Z,6.60
2023-09-16T23:33:44.518Z,7.40
2023-09-16T23:36:46.543Z,7.13
2023-09-16T23:39:48.533Z,6.13
